AFR841 TFFF-LFPG
Flight info
| Callsign | AFR841 |
|---|---|
| Flight time | N/A |
| Altitude | 33000 |
| Route | SESPO2R SESPO DCT DRDGE/M084F330 DCT 27N050W 36N040W 4000N03430W 43N030W 47N020W 48N015W DCT TAMEL DCT EVBAK DCT RATKA/N0485F330 DCT LARLA DCT GANTO DCT JSY UY111 INGOR UM25 LUKIP |
| Aircraft | B77W/H-SDE2E3FGHIJ3J5M1P2RWXYZ/LB1D1 |
Departure
| Time | 2026-05-08 20:25 |
|---|---|
| Airport | Martinique Aimé Césaire International Airport (TFFF) |
Arrival
| Time | N/A |
|---|---|
| Airport | Charles de Gaulle International Airport (LFPG) |
| Time | Latitude | Longitude | Altitude | Speed | Heading |
|---|---|---|---|---|---|
| 2026-05-08 19:19 | 14.59523 | -61.00150 | 11 ft | 0 kts | 49° |
| 2026-05-08 20:15 | 14.59519 | -61.00155 | 28 ft | 2 kts | 49° |
| 2026-05-08 20:15 | 14.59504 | -61.00175 | 29 ft | 4 kts | 65° |
| 2026-05-08 20:15 | 14.59495 | -61.00201 | 30 ft | 4 kts | 73° |
| 2026-05-08 20:16 | 14.59489 | -61.00223 | 30 ft | 4 kts | 85° |
| 2026-05-08 20:16 | 14.59491 | -61.00245 | 30 ft | 4 kts | 120° |
| 2026-05-08 20:16 | 14.59506 | -61.00264 | 30 ft | 4 kts | 140° |
| 2026-05-08 20:16 | 14.59518 | -61.00274 | 30 ft | 1 kts | 140° |
| 2026-05-08 20:17 | 14.59519 | -61.00275 | 30 ft | 0 kts | 140° |
| 2026-05-08 20:19 | 14.59493 | -61.00253 | 30 ft | 11 kts | 140° |
| 2026-05-08 20:19 | 14.59439 | -61.00197 | 28 ft | 11 kts | 131° |
| 2026-05-08 20:19 | 14.59394 | -61.00132 | 26 ft | 11 kts | 116° |
| 2026-05-08 20:19 | 14.59357 | -61.00064 | 28 ft | 11 kts | 137° |
| 2026-05-08 20:20 | 14.59279 | -61.00035 | 28 ft | 13 kts | 170° |
| 2026-05-08 20:20 | 14.59190 | -61.00027 | 29 ft | 13 kts | 194° |
| 2026-05-08 20:20 | 14.59142 | -61.00103 | 26 ft | 16 kts | 261° |
| 2026-05-08 20:20 | 14.59119 | -61.00250 | 24 ft | 22 kts | 260° |
| 2026-05-08 20:21 | 14.59092 | -61.00405 | 25 ft | 22 kts | 260° |
| 2026-05-08 20:21 | 14.59066 | -61.00560 | 26 ft | 22 kts | 260° |
| 2026-05-08 20:21 | 14.59039 | -61.00717 | 25 ft | 22 kts | 260° |
| 2026-05-08 20:21 | 14.59013 | -61.00873 | 27 ft | 22 kts | 260° |
| 2026-05-08 20:22 | 14.58986 | -61.01030 | 30 ft | 22 kts | 260° |
| 2026-05-08 20:22 | 14.58960 | -61.01186 | 27 ft | 22 kts | 260° |
| 2026-05-08 20:22 | 14.58932 | -61.01342 | 27 ft | 22 kts | 259° |
| 2026-05-08 20:22 | 14.58904 | -61.01498 | 30 ft | 22 kts | 259° |
| 2026-05-08 20:23 | 14.58878 | -61.01653 | 24 ft | 21 kts | 260° |
| 2026-05-08 20:23 | 14.58885 | -61.01748 | 28 ft | 11 kts | 305° |
| 2026-05-08 20:23 | 14.58896 | -61.01807 | 26 ft | 7 kts | 230° |
| 2026-05-08 20:23 | 14.58859 | -61.01801 | 25 ft | 6 kts | 120° |
| 2026-05-08 20:24 | 14.58860 | -61.01774 | 25 ft | 0 kts | 83° |
| 2026-05-08 20:24 | 14.58867 | -61.01718 | 26 ft | 26 kts | 80° |
| 2026-05-08 20:24 | 14.58945 | -61.01264 | 27 ft | 101 kts | 80° |
| 2026-05-08 20:25 | 14.59108 | -61.00308 | 23 ft | 166 kts | 80° |
| 2026-05-08 20:25 | 14.59327 | -60.99028 | 425 ft | 182 kts | 79° |
| 2026-05-08 20:25 | 14.59551 | -60.97735 | 1138 ft | 187 kts | 78° |
| 2026-05-08 20:25 | 14.59786 | -60.96397 | 1763 ft | 191 kts | 78° |
| 2026-05-08 20:26 | 14.60035 | -60.94972 | 1929 ft | 213 kts | 79° |
| 2026-05-08 20:26 | 14.60302 | -60.93394 | 2224 ft | 232 kts | 79° |
| 2026-05-08 20:26 | 14.60588 | -60.91705 | 2627 ft | 246 kts | 79° |
| 2026-05-08 20:26 | 14.60930 | -60.89958 | 3226 ft | 248 kts | 70° |
| 2026-05-08 20:27 | 14.61903 | -60.88470 | 3706 ft | 257 kts | 40° |
| 2026-05-08 20:27 | 14.63335 | -60.87340 | 4245 ft | 262 kts | 38° |
| 2026-05-08 20:27 | 14.64813 | -60.86218 | 4913 ft | 265 kts | 38° |
| 2026-05-08 20:27 | 14.66310 | -60.85094 | 5543 ft | 268 kts | 37° |
| 2026-05-08 20:28 | 14.67827 | -60.83953 | 6194 ft | 271 kts | 37° |
| 2026-05-08 20:28 | 14.69358 | -60.82801 | 6808 ft | 274 kts | 37° |
| 2026-05-08 20:28 | 14.70906 | -60.81635 | 7416 ft | 276 kts | 37° |
| 2026-05-08 20:28 | 14.72443 | -60.80474 | 8025 ft | 279 kts | 37° |
| 2026-05-08 20:29 | 14.74014 | -60.79287 | 8629 ft | 281 kts | 36° |
| 2026-05-08 20:29 | 14.75600 | -60.78087 | 9223 ft | 284 kts | 36° |
| 2026-05-08 20:29 | 14.77200 | -60.76876 | 9835 ft | 286 kts | 36° |
| 2026-05-08 20:29 | 14.78819 | -60.75652 | 10303 ft | 293 kts | 36° |
| 2026-05-08 20:30 | 14.80523 | -60.74362 | 10454 ft | 314 kts | 36° |
| 2026-05-08 20:30 | 14.82335 | -60.72987 | 10598 ft | 333 kts | 36° |
| 2026-05-08 20:30 | 14.84262 | -60.71526 | 10761 ft | 353 kts | 36° |
| 2026-05-08 20:30 | 14.86290 | -60.69987 | 11021 ft | 369 kts | 36° |
| 2026-05-08 20:31 | 14.88383 | -60.68397 | 11480 ft | 378 kts | 36° |
| 2026-05-08 20:31 | 14.90514 | -60.66777 | 12064 ft | 383 kts | 36° |
| 2026-05-08 20:31 | 14.92668 | -60.65139 | 12759 ft | 386 kts | 35° |
| 2026-05-08 20:31 | 14.94840 | -60.63485 | 13430 ft | 389 kts | 35° |
| 2026-05-08 20:32 | 14.97033 | -60.61818 | 14027 ft | 394 kts | 35° |
| 2026-05-08 20:32 | 14.99241 | -60.60138 | 14618 ft | 396 kts | 35° |
| 2026-05-08 20:32 | 15.01467 | -60.58444 | 15259 ft | 398 kts | 36° |
| 2026-05-08 20:32 | 15.03703 | -60.56741 | 15898 ft | 399 kts | 36° |
| 2026-05-08 20:33 | 15.05944 | -60.55036 | 16514 ft | 401 kts | 36° |
| 2026-05-08 20:33 | 15.08196 | -60.53320 | 17109 ft | 403 kts | 36° |
| 2026-05-08 20:33 | 15.10461 | -60.51594 | 17682 ft | 405 kts | 36° |
| 2026-05-08 20:33 | 15.12739 | -60.49859 | 18272 ft | 408 kts | 36° |
| 2026-05-08 20:34 | 15.15028 | -60.48116 | 18786 ft | 409 kts | 36° |
| 2026-05-08 20:34 | 15.17320 | -60.46369 | 19337 ft | 410 kts | 36° |
| 2026-05-08 20:34 | 15.21914 | -60.42862 | 20428 ft | 411 kts | 37° |
| 2026-05-08 20:35 | 15.24219 | -60.41103 | 20954 ft | 412 kts | 37° |
| 2026-05-08 20:35 | 15.26524 | -60.39343 | 21471 ft | 413 kts | 37° |
| 2026-05-08 20:35 | 15.28845 | -60.37570 | 21984 ft | 415 kts | 37° |
| 2026-05-08 20:35 | 15.31172 | -60.35795 | 22489 ft | 416 kts | 38° |
| 2026-05-08 20:36 | 15.33504 | -60.34014 | 22995 ft | 417 kts | 38° |
| 2026-05-08 20:36 | 15.35843 | -60.32225 | 23480 ft | 419 kts | 38° |
| 2026-05-08 20:36 | 15.38190 | -60.30430 | 23889 ft | 420 kts | 38° |
| 2026-05-08 20:36 | 15.40543 | -60.28629 | 24260 ft | 422 kts | 38° |
| 2026-05-08 20:37 | 15.42887 | -60.26837 | 24585 ft | 425 kts | 38° |
| 2026-05-08 20:37 | 15.45274 | -60.25013 | 24922 ft | 428 kts | 38° |
| 2026-05-08 20:37 | 15.47671 | -60.23180 | 25290 ft | 429 kts | 38° |
| 2026-05-08 20:37 | 15.50075 | -60.21338 | 25632 ft | 432 kts | 37° |
| 2026-05-08 20:38 | 15.52500 | -60.19481 | 25971 ft | 434 kts | 37° |
| 2026-05-08 20:38 | 15.54937 | -60.17616 | 26319 ft | 436 kts | 37° |
| 2026-05-08 20:38 | 15.57381 | -60.15744 | 26645 ft | 438 kts | 37° |
| 2026-05-08 20:38 | 15.59838 | -60.13861 | 26997 ft | 440 kts | 37° |
| 2026-05-08 20:39 | 15.62309 | -60.11966 | 27337 ft | 442 kts | 37° |
| 2026-05-08 20:39 | 15.64790 | -60.10063 | 27652 ft | 445 kts | 37° |
| 2026-05-08 20:39 | 15.67228 | -60.08084 | 27970 ft | 446 kts | 39° |
| 2026-05-08 20:39 | 15.69617 | -60.06008 | 28270 ft | 449 kts | 40° |
| 2026-05-08 20:40 | 15.71984 | -60.03894 | 28569 ft | 450 kts | 40° |
| 2026-05-08 20:40 | 15.74361 | -60.01760 | 28848 ft | 452 kts | 40° |
| 2026-05-08 20:40 | 15.76745 | -59.99626 | 29129 ft | 454 kts | 40° |
| 2026-05-08 20:40 | 15.79149 | -59.97486 | 29406 ft | 455 kts | 40° |
| 2026-05-08 20:41 | 15.81559 | -59.95349 | 29721 ft | 456 kts | 40° |
| 2026-05-08 20:41 | 15.83975 | -59.93213 | 30098 ft | 455 kts | 40° |
| 2026-05-08 20:41 | 15.86378 | -59.91091 | 30438 ft | 453 kts | 39° |
| 2026-05-08 20:41 | 15.88786 | -59.88969 | 30725 ft | 454 kts | 39° |
| 2026-05-08 20:42 | 15.91192 | -59.86851 | 30980 ft | 454 kts | 39° |
| 2026-05-08 20:42 | 15.93606 | -59.84724 | 31251 ft | 454 kts | 39° |
| 2026-05-08 20:42 | 15.96011 | -59.82602 | 31543 ft | 454 kts | 39° |
| 2026-05-08 20:42 | 15.98417 | -59.80478 | 31826 ft | 454 kts | 39° |
| 2026-05-08 20:43 | 16.00827 | -59.78353 | 32093 ft | 454 kts | 39° |
| 2026-05-08 20:43 | 16.03230 | -59.76234 | 32357 ft | 454 kts | 39° |
| 2026-05-08 20:43 | 16.05637 | -59.74106 | 32623 ft | 453 kts | 39° |
| 2026-05-08 20:43 | 16.08041 | -59.71982 | 32876 ft | 454 kts | 39° |
| 2026-05-08 20:44 | 16.10455 | -59.69849 | 32909 ft | 457 kts | 39° |
| 2026-05-08 20:44 | 16.15316 | -59.65550 | 32975 ft | 461 kts | 39° |
| 2026-05-08 20:45 | 16.20227 | -59.61205 | 32996 ft | 466 kts | 39° |
| 2026-05-08 20:45 | 16.25192 | -59.56810 | 32988 ft | 470 kts | 39° |
| 2026-05-08 20:46 | 16.30175 | -59.52395 | 32985 ft | 471 kts | 39° |
| 2026-05-08 20:46 | 16.35171 | -59.47964 | 32980 ft | 471 kts | 39° |
| 2026-05-08 20:47 | 16.40151 | -59.43545 | 32979 ft | 470 kts | 39° |
| 2026-05-08 20:47 | 16.45118 | -59.39137 | 32982 ft | 468 kts | 39° |